Time;durP1;ratioP1;P1;durP2;ratioP2;P2;SDS_P1;SDS_P2;PMS_P1;PMS_P2;Temp;Humidity;BMP_temperature;BMP_pressure;BME280_temperature;BME280_humidity;BME280_pressure;Samples;Min_cycle;Max_cycle;Signal;HPM_P1;HPM_P2
2023/03/01 07:55:43;;;;;;;3.28;2.70;;;;;;;7.35;100.00;98897.00;4978851;28;20593;-64
2023/03/01 07:58:09;;;;;;;2.38;2.17;;;;;;;7.38;100.00;98895.13;4976780;28;20185;-64
2023/03/01 08:00:34;;;;;;;3.15;2.47;;;;;;;7.22;100.00;98854.75;4976860;28;20177;-64
2023/03/01 08:03:01;;;;;;;3.45;3.15;;;;;;;7.10;100.00;98848.44;4977363;28;20192;-64
2023/03/01 08:05:27;;;;;;;2.20;2.10;;;;;;;7.26;100.00;98862.25;4976678;28;20224;-64
2023/03/01 08:07:53;;;;;;;1.70;1.60;;;;;;;7.17;100.00;98859.28;4976749;28;20558;-63
2023/03/01 08:10:19;;;;;;;2.72;2.63;;;;;;;7.47;100.00;98910.09;4976633;28;20183;-63
2023/03/01 08:12:44;;;;;;;3.17;2.47;;;;;;;7.36;100.00;98890.94;4976307;28;20180;-64
2023/03/01 08:15:10;;;;;;;1.88;1.77;;;;;;;7.05;100.00;98855.53;4935915;29;20245;-64
2023/03/01 08:17:36;;;;;;;2.00;1.90;;;;;;;6.99;100.00;98855.84;4935934;29;20669;-63
2023/03/01 08:20:03;;;;;;;1.70;1.60;;;;;;;7.15;100.00;98849.06;4934226;29;20237;-64
2023/03/01 08:22:28;;;;;;;3.97;2.13;;;;;;;7.45;100.00;98900.81;4934640;29;20186;-64
2023/03/01 08:24:55;;;;;;;4.10;2.17;;;;;;;7.12;100.00;98856.91;4934573;29;20666;-64
2023/03/01 08:27:21;;;;;;;2.53;2.33;;;;;;;7.18;100.00;98872.06;4935721;29;20194;-64
2023/03/01 08:29:46;;;;;;;3.35;3.05;;;;;;;7.07;100.00;98882.06;4935866;29;20182;-64
2023/03/01 08:32:12;;;;;;;5.82;3.17;;;;;;;7.08;100.00;98911.16;4935551;29;20186;-64
2023/03/01 08:34:37;;;;;;;3.15;2.85;;;;;;;7.03;100.00;98898.53;4935789;29;20182;-64
2023/03/01 08:37:03;;;;;;;6.68;3.15;;;;;;;6.71;100.00;98829.72;4935488;29;20182;-64
2023/03/01 08:39:28;;;;;;;5.05;2.90;;;;;;;6.99;100.00;98894.41;4935430;29;20708;-64
2023/03/01 08:41:54;;;;;;;3.08;2.88;;;;;;;7.02;100.00;98891.72;4935208;29;20731;-63
2023/03/01 08:44:20;;;;;;;2.60;2.38;;;;;;;6.94;100.00;98849.25;4935288;29;20189;-64
2023/03/01 08:46:46;;;;;;;3.88;3.17;;;;;;;7.17;100.00;98885.84;4935307;29;20194;-63
2023/03/01 08:49:14;;;;;;;3.50;3.20;;;;;;;7.03;100.00;98859.09;4935264;29;20205;-64
2023/03/01 08:51:40;;;;;;;4.13;3.45;;;;;;;7.07;100.00;98842.63;4940094;28;20272;-63
2023/03/01 08:54:10;;;;;;;3.22;2.88;;;;;;;7.40;100.00;98907.94;4976232;28;20302;-63
2023/03/01 08:56:35;;;;;;;3.60;2.58;;;;;;;6.90;100.00;98860.56;4975845;28;20539;-64
2023/03/01 08:59:00;;;;;;;4.10;2.83;;;;;;;7.32;100.00;98900.56;4974650;28;20196;-64
2023/03/01 09:01:28;;;;;;;3.30;3.00;;;;;;;6.99;100.00;98878.97;4975631;28;20172;-63
2023/03/01 09:03:53;;;;;;;3.65;3.35;;;;;;;7.20;100.00;98893.44;4975686;28;20181;-64
2023/03/01 09:06:19;;;;;;;3.67;3.38;;;;;;;7.31;100.00;98883.47;4975943;28;20239;-64
2023/03/01 09:08:46;;;;;;;3.38;3.08;;;;;;;7.26;100.00;98880.28;4954105;29;20193;-63
2023/03/01 09:11:15;;;;;;;5.88;4.57;;;;;;;7.40;100.00;98897.63;4954502;29;20272;-64
2023/03/01 09:13:41;;;;;;;3.83;3.53;;;;;;;7.09;100.00;98843.38;4954158;29;20185;-64
2023/03/01 09:16:07;;;;;;;5.25;4.13;;;;;;;7.57;100.00;98906.19;4953445;29;20264;-64
2023/03/01 09:18:34;;;;;;;15.10;7.15;;;;;;;7.20;100.00;98859.13;4954238;29;20217;-64
2023/03/01 09:21:12;;;;;;;8.85;4.03;;;;;;;7.34;100.00;98903.88;4953831;29;20193;-63
2023/03/01 09:23:41;;;;;;;9.38;5.45;;;;;;;7.09;100.00;98900.81;4953910;29;20593;-64
2023/03/01 09:26:14;;;;;;;15.00;7.88;;;;;;;7.23;100.00;98905.31;4953734;29;20280;-64
2023/03/01 09:28:42;;;;;;;5.82;4.57;;;;;;;7.18;100.00;98881.53;4953724;29;20244;-64
2023/03/01 09:31:08;;;;;;;9.65;4.88;;;;;;;7.54;100.00;98908.94;4953590;29;20182;-64
2023/03/01 09:33:33;;;;;;;3.05;2.80;;;;;;;7.41;100.00;98897.53;4953545;29;20196;-64
2023/03/01 09:36:01;;;;;;;4.10;3.70;;;;;;;7.12;100.00;98838.09;4953930;29;20239;-65
2023/03/01 09:38:27;;;;;;;6.60;5.05;;;;;;;7.27;100.00;98881.09;4953611;29;20212;-63
2023/03/01 09:40:53;;;;;;;6.32;4.50;;;;;;;7.42;100.00;98891.50;4974149;28;20677;-63
2023/03/01 09:43:31;;;;;;;5.70;3.53;;;;;;;7.57;100.00;98890.75;4974940;28;20185;-65
2023/03/01 09:46:03;;;;;;;4.28;3.67;;;;;;;7.57;100.00;98883.00;4974792;28;20180;-64
2023/03/01 09:48:37;;;;;;;5.95;4.43;;;;;;;7.63;100.00;98890.44;4975184;28;20192;-64
2023/03/01 09:51:08;;;;;;;9.10;6.93;;;;;;;7.38;100.00;98830.78;4975121;28;20575;-65
2023/03/01 09:53:35;;;;;;;9.68;3.83;;;;;;;7.60;100.00;98833.94;4974716;28;20169;-64
2023/03/01 09:56:24;;;;;;;4.22;3.60;;;;;;;7.86;100.00;98861.81;4955327;28;20212;-64
2023/03/01 09:59:14;;;;;;;3.35;3.05;;;;;;;7.91;100.00;98883.00;4975253;28;20788;-64
2023/03/01 10:02:17;;;;;;;10.98;7.25;;;;;;;7.89;100.00;98882.28;4974650;28;20267;-64
2023/03/01 10:04:48;;;;;;;24.60;13.52;;;;;;;7.78;100.00;98866.50;4974574;28;20689;-64
2023/03/01 10:07:40;;;;;;;26.83;15.52;;;;;;;7.75;100.00;98882.09;4940940;28;20196;-64
2023/03/01 10:10:07;;;;;;;39.90;15.65;;;;;;;7.78;100.00;98861.38;4974696;28;20192;-64
2023/03/01 10:12:40;;;;;;;9.50;6.53;;;;;;;7.78;100.00;98858.78;4974449;28;20569;-64
2023/03/01 10:15:17;;;;;;;5.30;4.80;;;;;;;7.87;100.00;98886.63;4974453;28;20542;-64
2023/03/01 10:18:02;;;;;;;6.50;4.88;;;;;;;7.65;100.00;98857.75;4956725;28;20196;-64
2023/03/01 10:20:50;;;;;;;4.40;4.00;;;;;;;7.19;100.00;98817.13;4974655;28;20180;-64
2023/03/01 10:23:16;;;;;;;5.63;5.10;;;;;;;7.15;100.00;98813.03;4974633;28;20175;-64
2023/03/01 10:26:04;;;;;;;7.78;6.97;;;;;;;7.60;100.00;98880.31;4974481;28;20176;-64
2023/03/01 10:29:02;;;;;;;9.23;7.07;;;;;;;7.67;100.00;98873.09;4974152;28;20275;-64
2023/03/01 10:31:40;;;;;;;7.13;5.47;;;;;;;7.66;100.00;98867.13;4944453;29;20196;-64
2023/03/01 10:34:15;;;;;;;5.65;3.78;;;;;;;6.95;100.00;98808.03;4953039;29;20193;-64
2023/03/01 10:36:42;;;;;;;52.75;19.90;;;;;;;7.38;100.00;98853.94;4952385;29;20693;-63
2023/03/01 10:39:33;;;;;;;35.97;18.05;;;;;;;7.39;100.00;98858.16;4951064;29;20714;-63
2023/03/01 10:42:04;;;;;;;5.80;4.63;;;;;;;7.53;100.00;98873.78;4932710;29;20202;-64
2023/03/01 10:44:35;;;;;;;10.05;7.28;;;;;;;7.51;100.00;98867.88;4932294;29;20664;-64
2023/03/01 10:47:03;;;;;;;11.70;7.70;;;;;;;7.15;100.00;98795.03;4933362;29;20193;-64
2023/03/01 10:49:29;;;;;;;6.53;5.47;;;;;;;7.32;100.00;98833.66;4933185;29;20194;-64
2023/03/01 10:51:55;;;;;;;8.15;7.03;;;;;;;7.11;100.00;98810.69;4933100;29;20680;-64
2023/03/01 10:54:32;;;;;;;2.85;2.65;;;;;;;7.37;100.00;98862.56;4933070;29;20752;-63
2023/03/01 10:57:01;;;;;;;6.30;4.50;;;;;;;6.79;100.00;98765.94;4933186;29;20656;-64
2023/03/01 10:59:36;;;;;;;5.90;5.30;;;;;;;7.30;100.00;98856.06;4932909;29;20205;-64
2023/03/01 11:02:21;;;;;;;4.07;3.78;;;;;;;7.27;100.00;98852.78;4933148;29;20189;-64
2023/03/01 11:05:19;;;;;;;9.27;6.60;;;;;;;7.29;100.00;98845.84;4933313;29;20194;-63
2023/03/01 11:07:53;;;;;;;5.32;3.88;;;;;;;7.28;100.00;98837.25;4933392;29;20189;-64
2023/03/01 11:10:30;;;;;;;62.22;26.45;;;;;;;6.86;100.00;98736.44;4932884;29;20198;-64
2023/03/01 11:13:25;;;;;;;20.52;10.35;;;;;;;7.40;100.00;98831.50;4951552;28;20196;-63
2023/03/01 11:16:05;;;;;;;46.47;17.70;;;;;;;7.33;100.00;98821.59;4914362;29;20202;-64
2023/03/01 11:18:31;;;;;;;45.03;17.50;;;;;;;7.11;100.00;98783.22;4914604;29;20305;-64
2023/03/01 11:21:00;;;;;;;20.75;10.10;;;;;;;7.37;100.00;98816.22;4915544;29;20187;-63
2023/03/01 11:23:27;;;;;;;10.63;5.45;;;;;;;7.20;100.00;98769.91;4917894;29;20201;-64
2023/03/01 11:25:59;;;;;;;31.73;13.88;;;;;;;7.31;100.00;98762.50;4918010;29;20563;-64
2023/03/01 11:28:28;;;;;;;9.88;6.75;;;;;;;7.04;100.00;98720.09;4917973;29;20182;-64
2023/03/01 11:31:00;;;;;;;29.58;15.07;;;;;;;7.30;100.00;98753.09;4917902;29;20187;-64
2023/03/01 11:33:43;;;;;;;122.07;40.80;;;;;;;7.62;100.00;98806.38;4918079;29;20253;-64
2023/03/01 11:36:30;;;;;;;33.00;14.98;;;;;;;7.77;100.00;98797.88;4917914;29;20171;-63
2023/03/01 11:38:56;;;;;;;122.53;44.28;;;;;;;7.51;100.00;98746.88;4917801;29;20225;-64
2023/03/01 11:41:31;;;;;;;45.30;21.25;;;;;;;7.59;100.00;98777.38;4917464;29;20179;-64
2023/03/01 11:44:04;;;;;;;10.32;9.20;;;;;;;7.06;100.00;98728.56;4918020;29;20221;-64
2023/03/01 11:46:32;;;;;;;91.07;59.95;;;;;;;7.43;100.00;98785.03;4917819;29;20190;-64
2023/03/01 11:49:06;;;;;;;17.25;12.52;;;;;;;7.53;100.00;98786.25;4898550;29;20683;-64
2023/03/01 11:51:46;;;;;;;11.02;9.05;;;;;;;7.61;100.00;98791.00;4910565;29;20721;-64
2023/03/01 11:54:12;;;;;;;9.02;7.28;;;;;;;7.58;100.00;98780.88;4959197;28;20294;-64
2023/03/01 11:57:18;;;;;;;6.30;4.55;;;;;;;7.51;100.00;98785.47;4975293;28;20255;-64
2023/03/01 12:00:00;;;;;;;4.43;3.47;;;;;;;7.69;100.00;98786.31;4973921;28;20216;-64
2023/03/01 12:02:40;;;;;;;40.90;18.10;;;;;;;7.58;100.00;98781.69;4955645;29;20196;-64
2023/03/01 12:05:20;;;;;;;20.42;8.43;;;;;;;7.66;100.00;98782.13;4956007;29;20224;-64
2023/03/01 12:07:56;;;;;;;79.57;30.52;;;;;;;7.70;100.00;98781.06;4955745;29;20173;-64
2023/03/01 12:10:26;;;;;;;83.18;31.27;;;;;;;7.32;100.00;98756.44;4955641;29;20321;-64
2023/03/01 12:13:39;;;;;;;45.33;17.55;;;;;;;7.51;100.00;98782.91;4955628;29;20687;-64
2023/03/01 12:16:23;;;;;;;34.10;14.93;;;;;;;7.58;100.00;98779.09;4898438;29;20199;-64
2023/03/01 12:19:13;;;;;;;35.67;16.33;;;;;;;7.09;100.00;98707.84;4898666;29;20721;-64
2023/03/01 12:22:08;;;;;;;24.15;11.07;;;;;;;7.40;100.00;98758.63;4916780;29;20191;-64
2023/03/01 12:24:45;;;;;;;6.68;5.25;;;;;;;7.58;100.00;98783.44;4861151;29;20204;-64
2023/03/01 12:27:29;;;;;;;4.53;4.07;;;;;;;7.66;100.00;98776.16;4860796;29;20268;-64
2023/03/01 12:30:20;;;;;;;8.88;4.70;;;;;;;7.50;100.00;98750.34;4860811;29;20200;-64
2023/03/01 12:33:01;;;;;;;10.95;8.57;;;;;;;7.58;100.00;98755.13;4859523;29;20204;-64
2023/03/01 12:35:58;;;;;;;7.68;5.95;;;;;;;7.70;100.00;98772.50;4861247;29;20208;-64
2023/03/01 12:38:26;;;;;;;3.38;3.00;;;;;;;7.63;100.00;98766.84;4860376;29;20568;-64
2023/03/01 12:41:36;;;;;;;9.20;6.25;;;;;;;7.47;100.00;98755.63;4860459;29;20686;-64
2023/03/01 12:44:38;;;;;;;20.02;8.77;;;;;;;7.52;100.00;98758.00;4841720;29;20192;-67
2023/03/01 12:47:19;;;;;;;36.80;15.48;;;;;;;7.57;100.00;98743.16;4841878;29;20275;-63
2023/03/01 12:50:13;;;;;;;7.65;5.32;;;;;;;7.44;100.00;98740.38;4842258;29;20284;-64
2023/03/01 12:52:50;;;;;;;4.43;4.03;;;;;;;7.47;100.00;98741.97;4822654;29;20205;-64
2023/03/01 12:55:24;;;;;;;13.35;9.27;;;;;;;7.57;100.00;98741.41;4834854;29;20205;-64
2023/03/01 12:58:28;;;;;;;6.57;5.53;;;;;;;7.56;100.00;98742.31;4841903;29;20200;-64
2023/03/01 13:01:03;;;;;;;6.78;6.03;;;;;;;7.30;100.00;98693.91;4841810;29;20204;-64
2023/03/01 13:04:12;;;;;;;7.80;4.88;;;;;;;7.65;100.00;98747.00;4841514;29;20201;-64
2023/03/01 13:06:58;;;;;;;13.73;9.68;;;;;;;7.80;100.00;98748.78;4805430;29;20195;-64
2023/03/01 13:09:39;;;;;;;7.20;5.03;;;;;;;7.76;100.00;98736.94;4796721;29;20203;-64
2023/03/01 13:12:43;;;;;;;5.25;4.20;;;;;;;7.79;100.00;98751.41;4787336;30;20191;-65
2023/03/01 13:15:35;;;;;;;5.90;5.25;;;;;;;7.79;100.00;98739.38;4787419;30;20255;-64
2023/03/01 13:18:04;;;;;;;6.50;5.90;;;;;;;7.77;100.00;98743.78;4776663;30;20200;-64
2023/03/01 13:20:42;;;;;;;10.43;8.23;;;;;;;7.60;100.00;98688.91;4768972;30;20235;-64
2023/03/01 13:23:23;;;;;;;6.97;5.25;;;;;;;7.71;100.00;98749.25;4769245;30;20200;-65
2023/03/01 13:26:00;;;;;;;5.47;4.97;;;;;;;7.81;100.00;98755.59;4769371;30;20242;-64
2023/03/01 13:28:34;;;;;;;9.65;7.63;;;;;;;7.83;100.00;98745.19;4768850;30;20208;-65
2023/03/01 13:31:07;;;;;;;8.98;7.25;;;;;;;7.52;100.00;98686.72;4768825;30;20206;-64
2023/03/01 13:33:43;;;;;;;6.60;5.50;;;;;;;7.63;100.00;98697.31;4769282;30;20195;-65
2023/03/01 13:36:13;;;;;;;7.63;6.15;;;;;;;7.40;100.00;98647.94;4768701;30;20216;-65
2023/03/01 13:38:57;;;;;;;4.65;4.30;;;;;;;7.59;100.00;98690.69;4833229;29;20292;-65
2023/03/01 13:41:41;;;;;;;8.07;6.65;;;;;;;7.87;100.00;98739.00;4841373;29;20757;-65
2023/03/01 13:44:24;;;;;;;7.18;6.47;;;;;;;7.97;100.00;98743.56;4924984;29;20557;-65
2023/03/01 13:47:09;;;;;;;5.78;5.18;;;;;;;7.84;100.00;98734.84;4934527;29;20248;-64
2023/03/01 13:49:35;;;;;;;6.07;5.35;;;;;;;7.83;100.00;98743.47;4896401;29;20197;-65
2023/03/01 13:52:01;;;;;;;6.90;6.20;;;;;;;7.53;100.00;98688.41;4877608;29;20595;-64
2023/03/01 13:54:32;;;;;;;7.13;5.88;;;;;;;7.62;100.00;98684.50;4882823;29;20207;-65
2023/03/01 13:57:01;;;;;;;7.20;5.93;;;;;;;8.00;100.00;98738.28;4896359;29;20206;-65
2023/03/01 13:59:27;;;;;;;7.22;5.53;;;;;;;7.36;100.00;98642.13;4896083;29;20202;-65
2023/03/01 14:01:58;;;;;;;6.82;5.93;;;;;;;7.99;100.00;98733.19;4896274;29;20219;-65
2023/03/01 14:04:30;;;;;;;6.15;5.55;;;;;;;7.49;100.00;98694.63;4896651;29;20171;-65
2023/03/01 14:07:10;;;;;;;9.80;8.30;;;;;;;7.93;100.00;98748.97;4896142;29;20678;-64
2023/03/01 14:09:40;;;;;;;9.45;6.07;;;;;;;7.82;100.00;98741.78;4895990;29;20218;-65
2023/03/01 14:12:29;;;;;;;7.53;6.28;;;;;;;7.71;100.00;98705.47;4896314;29;20233;-65
2023/03/01 14:15:22;;;;;;;9.20;6.40;;;;;;;8.10;100.00;98746.34;4896848;29;20255;-65
2023/03/01 14:17:54;;;;;;;6.82;6.13;;;;;;;7.66;100.00;98698.88;4839878;29;20663;-63
2023/03/01 14:20:22;;;;;;;9.02;7.63;;;;;;;7.62;100.00;98699.94;4840193;29;20220;-63
2023/03/01 14:22:51;;;;;;;8.57;7.18;;;;;;;7.84;100.00;98724.53;4822005;29;20699;-63
2023/03/01 14:25:26;;;;;;;7.30;6.60;;;;;;;7.42;100.00;98683.00;4838978;29;20299;-63
2023/03/01 14:28:14;;;;;;;12.20;10.18;;;;;;;7.61;100.00;98691.41;4876588;29;20670;-64
2023/03/01 14:30:45;;;;;;;8.32;6.90;;;;;;;7.75;100.00;98693.28;4877430;29;20176;-64
2023/03/01 14:33:33;;;;;;;7.70;6.55;;;;;;;8.06;100.00;98750.81;4877064;29;20279;-63
2023/03/01 14:36:02;;;;;;;10.18;9.15;;;;;;;8.10;100.00;98736.84;4877279;29;20180;-63
2023/03/01 14:38:48;;;;;;;7.40;5.82;;;;;;;8.10;100.00;98754.88;4876759;29;20196;-63
2023/03/01 14:41:20;;;;;;;8.48;7.13;;;;;;;7.73;100.00;98684.78;4877250;29;20210;-64
2023/03/01 14:43:52;;;;;;;6.65;5.80;;;;;;;7.92;100.00;98717.22;4874663;29;20204;-64
2023/03/01 14:46:22;;;;;;;6.95;5.60;;;;;;;8.12;100.00;98735.03;4876956;29;20172;-63
2023/03/01 14:49:00;;;;;;;11.65;9.23;;;;;;;7.58;100.00;98676.09;4894801;29;20648;-63
2023/03/01 14:51:26;;;;;;;12.77;10.32;;;;;;;7.82;100.00;98720.38;4914275;29;20177;-63
2023/03/01 14:53:52;;;;;;;12.18;8.88;;;;;;;7.86;100.00;98734.75;4876015;29;20195;-63
2023/03/01 14:56:18;;;;;;;8.07;6.35;;;;;;;7.55;100.00;98696.88;4894905;29;20197;-63
2023/03/01 14:58:44;;;;;;;10.00;7.88;;;;;;;7.65;100.00;98702.38;4894936;29;20226;-63
2023/03/01 15:01:15;;;;;;;10.93;8.57;;;;;;;7.54;100.00;98696.97;4945611;29;20751;-63
2023/03/01 15:03:48;;;;;;;9.88;8.43;;;;;;;7.55;100.00;98696.88;4952497;29;20292;-63
2023/03/01 15:06:18;;;;;;;7.50;6.75;;;;;;;7.89;100.00;98743.16;4951980;29;20632;-63
2023/03/01 15:08:49;;;;;;;8.88;7.18;;;;;;;7.76;100.00;98739.53;4952025;29;20200;-64
2023/03/01 15:11:17;;;;;;;8.48;7.13;;;;;;;7.88;100.00;98745.81;4952071;29;20197;-63
2023/03/01 15:13:46;;;;;;;5.13;4.60;;;;;;;7.79;100.00;98752.25;4952514;29;20189;-63
2023/03/01 15:16:14;;;;;;;7.32;6.10;;;;;;;7.51;100.00;98700.53;4951933;29;20188;-63
2023/03/01 15:18:48;;;;;;;5.80;5.20;;;;;;;7.71;100.00;98754.41;4951825;29;20686;-63
2023/03/01 15:21:26;;;;;;;7.30;6.45;;;;;;;7.56;100.00;98751.78;4952158;29;20650;-63
2023/03/01 15:24:22;;;;;;;7.25;5.90;;;;;;;7.54;100.00;98746.72;4954204;28;20627;-63
2023/03/01 15:26:57;;;;;;;6.47;5.88;;;;;;;7.30;100.00;98711.94;4973142;28;20324;-63
2023/03/01 15:29:29;;;;;;;6.45;5.78;;;;;;;7.32;100.00;98720.41;4973366;28;20175;-63
2023/03/01 15:32:06;;;;;;;5.20;4.70;;;;;;;7.13;100.00;98696.50;4973935;28;20164;-63
2023/03/01 15:34:36;;;;;;;8.25;6.35;;;;;;;7.45;100.00;98741.22;4973018;28;20565;-63
2023/03/01 15:37:05;;;;;;;7.00;6.32;;;;;;;7.36;100.00;98711.63;4973581;28;20165;-64
2023/03/01 15:39:37;;;;;;;7.05;6.35;;;;;;;7.24;100.00;98704.53;4973245;28;20699;-64
2023/03/01 15:42:28;;;;;;;15.48;11.70;;;;;;;7.53;100.00;98757.94;4951903;28;20186;-64
2023/03/01 15:45:16;;;;;;;10.30;9.05;;;;;;;7.63;100.00;98761.69;4928313;29;20232;-63
2023/03/01 15:47:48;;;;;;;11.90;9.05;;;;;;;7.00;100.00;98663.75;4932796;29;20182;-64
2023/03/01 15:50:23;;;;;;;11.93;9.23;;;;;;;7.56;100.00;98765.50;4932838;29;20218;-63
2023/03/01 15:52:50;;;;;;;10.73;8.55;;;;;;;7.34;100.00;98697.97;4932365;29;20197;-63
2023/03/01 15:55:29;;;;;;;11.60;8.88;;;;;;;7.51;100.00;98713.38;4944475;29;20221;-63
2023/03/01 15:58:12;;;;;;;10.32;8.98;;;;;;;7.55;100.00;98753.53;4932880;29;20296;-64
2023/03/01 16:00:38;;;;;;;26.10;19.17;;;;;;;7.61;100.00;98750.63;4932995;29;20209;-63
2023/03/01 16:03:08;;;;;;;37.85;25.63;;;;;;;7.74;100.00;98764.53;4932444;29;20737;-64
2023/03/01 16:05:36;;;;;;;14.63;10.85;;;;;;;7.42;100.00;98710.47;4932553;29;20190;-64
2023/03/01 16:08:02;;;;;;;11.52;7.25;;;;;;;7.54;100.00;98728.69;4935225;29;20204;-65
2023/03/01 16:10:28;;;;;;;7.07;6.28;;;;;;;7.68;100.00;98751.97;4936055;29;20190;-65
2023/03/01 16:12:54;;;;;;;8.77;6.47;;;;;;;7.60;100.00;98701.78;4944723;29;20200;-65
2023/03/01 16:15:21;;;;;;;10.73;8.80;;;;;;;7.93;100.00;98748.97;4955003;29;20185;-65
2023/03/01 16:17:47;;;;;;;15.38;11.20;;;;;;;7.66;100.00;98704.88;4954967;29;20189;-65
2023/03/01 16:20:15;;;;;;;15.45;12.05;;;;;;;7.97;100.00;98755.59;4954906;28;20228;-65
2023/03/01 16:22:42;;;;;;;17.35;11.75;;;;;;;7.98;100.00;98757.31;4954819;28;20196;-63
2023/03/01 16:25:10;;;;;;;15.10;12.15;;;;;;;7.79;100.00;98751.41;4954783;29;20255;-63
2023/03/01 16:27:35;;;;;;;19.60;13.95;;;;;;;7.80;100.00;98748.78;4953589;28;20180;-63
2023/03/01 16:30:01;;;;;;;13.05;9.43;;;;;;;7.91;100.00;98758.50;4974550;28;20188;-64
2023/03/01 16:32:26;;;;;;;14.38;10.02;;;;;;;7.75;100.00;98755.09;4976325;28;20204;-64
2023/03/01 16:34:52;;;;;;;13.30;8.73;;;;;;;7.36;100.00;98709.03;4976333;28;20187;-63
2023/03/01 16:37:21;;;;;;;10.65;6.72;;;;;;;7.63;100.00;98751.38;4976540;28;20626;-64
2023/03/01 16:39:49;;;;;;;5.95;5.13;;;;;;;7.29;100.00;98681.94;4976560;28;20295;-64
2023/03/01 16:42:16;;;;;;;8.93;6.82;;;;;;;7.61;100.00;98745.50;4976167;28;20635;-63
2023/03/01 16:44:41;;;;;;;11.23;8.32;;;;;;;7.51;100.00;98746.88;4976135;28;20258;-64
2023/03/01 16:47:06;;;;;;;10.05;7.35;;;;;;;7.10;100.00;98694.06;4975953;28;20264;-64
2023/03/01 16:49:32;;;;;;;9.18;7.13;;;;;;;7.48;100.00;98743.63;4975855;28;20191;-64
2023/03/01 16:51:58;;;;;;;8.50;6.30;;;;;;;7.50;100.00;98749.50;4975963;28;20176;-64
2023/03/01 16:54:24;;;;;;;7.80;6.78;;;;;;;6.87;100.00;98662.69;4975486;28;20222;-63
2023/03/01 16:56:49;;;;;;;9.13;7.95;;;;;;;7.44;100.00;98753.22;4975416;28;20631;-64
2023/03/01 16:59:15;;;;;;;8.40;7.40;;;;;;;7.26;100.00;98707.84;4975963;28;20205;-63
2023/03/01 17:01:41;;;;;;;8.98;7.60;;;;;;;7.50;100.00;98752.94;4974115;28;20184;-63
2023/03/01 17:04:10;;;;;;;10.40;8.77;;;;;;;7.60;100.00;98769.56;4973965;28;20317;-63
2023/03/01 17:06:35;;;;;;;17.42;11.65;;;;;;;7.05;100.00;98715.81;4954133;28;20671;-64
2023/03/01 17:09:01;;;;;;;19.52;11.25;;;;;;;7.44;100.00;98771.25;4954222;29;20203;-64
2023/03/01 17:11:27;;;;;;;12.00;9.32;;;;;;;7.47;100.00;98765.13;4954051;29;20189;-64
2023/03/01 17:13:52;;;;;;;11.60;9.18;;;;;;;7.36;100.00;98763.09;4953787;28;20659;-64
2023/03/01 17:16:19;;;;;;;12.98;9.00;;;;;;;7.12;100.00;98706.88;4953826;29;20687;-64
2023/03/01 17:18:45;;;;;;;14.40;10.30;;;;;;;7.18;100.00;98717.66;4952956;28;20213;-64
2023/03/01 17:21:12;;;;;;;17.17;11.73;;;;;;;7.51;100.00;98771.78;4953911;28;20185;-64
2023/03/01 17:23:41;;;;;;;17.25;12.60;;;;;;;7.63;100.00;98781.47;4953961;29;20260;-64
2023/03/01 17:26:07;;;;;;;14.52;11.07;;;;;;;7.67;100.00;98775.22;4953976;28;20198;-64
2023/03/01 17:28:34;;;;;;;18.13;12.85;;;;;;;7.66;100.00;98771.84;4953870;29;20189;-64
2023/03/01 17:31:01;;;;;;;16.08;12.00;;;;;;;7.57;100.00;98776.63;4954196;29;20197;-64
2023/03/01 17:33:29;;;;;;;15.18;11.73;;;;;;;7.08;100.00;98710.50;4953975;28;20276;-64
2023/03/01 17:35:55;;;;;;;15.10;11.88;;;;;;;7.73;100.00;98778.34;4953577;29;20173;-64
2023/03/01 17:38:21;;;;;;;17.02;11.20;;;;;;;7.86;100.00;98776.78;4934400;29;20198;-64
2023/03/01 17:40:46;;;;;;;13.73;9.98;;;;;;;7.65;100.00;98734.13;4934826;29;20190;-64
2023/03/01 17:43:13;;;;;;;12.05;9.85;;;;;;;7.88;100.00;98756.09;4940887;28;20276;-64
2023/03/01 17:45:38;;;;;;;11.00;9.38;;;;;;;7.54;100.00;98702.94;4972866;28;20267;-65
2023/03/01 17:48:05;;;;;;;12.10;9.60;;;;;;;7.90;100.00;98765.41;4953119;29;20196;-65
2023/03/01 17:50:32;;;;;;;13.80;11.52;;;;;;;8.02;100.00;98764.78;4915800;29;20195;-65
2023/03/01 17:52:57;;;;;;;17.98;12.68;;;;;;;7.88;100.00;98730.34;4915008;29;20724;-65
2023/03/01 17:55:23;;;;;;;11.50;10.10;;;;;;;7.64;100.00;98711.84;4914890;29;20289;-65
2023/03/01 17:57:49;;;;;;;10.90;9.40;;;;;;;7.85;100.00;98754.53;4915004;29;20580;-65
2023/03/01 18:00:16;;;;;;;14.65;11.93;;;;;;;7.67;100.00;98701.41;4915602;29;20214;-65
2023/03/01 18:02:43;;;;;;;16.73;11.73;;;;;;;8.09;100.00;98747.25;4914949;29;20191;-65
2023/03/01 18:05:09;;;;;;;15.80;11.25;;;;;;;8.09;100.00;98766.13;4915361;29;20193;-65
2023/03/01 18:07:35;;;;;;;16.30;10.73;;;;;;;7.66;100.00;98704.88;4915130;29;20234;-65
2023/03/01 18:10:01;;;;;;;23.45;14.32;;;;;;;7.57;100.00;98707.94;4929845;29;20622;-65
2023/03/01 18:12:26;;;;;;;24.90;16.00;;;;;;;7.63;100.00;98745.41;4934149;29;20197;-65
2023/03/01 18:14:52;;;;;;;14.63;10.45;;;;;;;7.57;100.00;98746.53;4933705;29;20182;-65
2023/03/01 18:17:21;;;;;;;17.30;12.40;;;;;;;7.52;100.00;98752.84;4933682;29;20253;-65
2023/03/01 18:19:47;;;;;;;15.43;11.52;;;;;;;7.31;100.00;98703.28;4933855;29;20272;-65
2023/03/01 18:22:13;;;;;;;16.38;11.82;;;;;;;7.58;100.00;98755.94;4964338;28;20219;-64
2023/03/01 18:24:39;;;;;;;16.63;11.65;;;;;;;7.52;100.00;98717.63;4972526;28;20195;-65
2023/03/01 18:27:04;;;;;;;21.83;14.13;;;;;;;7.35;100.00;98699.63;4974492;28;20177;-65
2023/03/01 18:29:30;;;;;;;18.92;14.00;;;;;;;7.66;100.00;98756.38;4952936;28;20222;-64
2023/03/01 18:31:57;;;;;;;21.08;15.43;;;;;;;7.39;100.00;98701.16;4952654;29;20189;-64
2023/03/01 18:34:23;;;;;;;16.63;13.32;;;;;;;7.08;100.00;98700.19;4952742;28;20858;-64
2023/03/01 18:36:50;;;;;;;14.43;11.70;;;;;;;7.12;100.00;98707.69;4952510;29;20268;-63
2023/03/01 18:39:16;;;;;;;14.55;11.30;;;;;;;7.17;100.00;98718.56;4952695;28;20250;-64
2023/03/01 18:41:42;;;;;;;16.48;12.15;;;;;;;7.44;100.00;98767.84;4952493;28;20200;-65
2023/03/01 18:44:09;;;;;;;13.18;10.82;;;;;;;7.43;100.00;98764.44;4952425;29;20193;-65
2023/03/01 18:46:37;;;;;;;14.35;10.13;;;;;;;7.31;100.00;98765.06;4952687;29;20185;-65
2023/03/01 18:49:03;;;;;;;14.82;10.48;;;;;;;6.75;100.00;98679.56;4952647;28;20276;-65
2023/03/01 18:51:28;;;;;;;15.23;11.85;;;;;;;7.16;100.00;98749.56;4952706;29;20279;-65
2023/03/01 18:53:57;;;;;;;16.63;12.50;;;;;;;7.23;100.00;98776.66;4952303;29;20177;-65
2023/03/01 18:56:23;;;;;;;17.52;12.18;;;;;;;7.08;100.00;98743.94;4952815;29;20660;-65
2023/03/01 18:58:49;;;;;;;16.70;12.10;;;;;;;6.93;100.00;98709.50;4932962;29;20222;-65
2023/03/01 19:01:18;;;;;;;17.25;12.52;;;;;;;7.30;100.00;98778.84;4933117;29;20193;-65
2023/03/01 19:03:43;;;;;;;26.75;17.45;;;;;;;6.87;100.00;98707.22;4932875;29;20198;-65
2023/03/01 19:06:09;;;;;;;19.48;13.43;;;;;;;6.94;100.00;98721.47;4932879;29;20197;-65
2023/03/01 19:08:35;;;;;;;15.88;12.15;;;;;;;7.17;100.00;98762.31;4932946;29;20193;-65
2023/03/01 19:11:03;;;;;;;18.13;12.57;;;;;;;7.05;100.00;98751.81;4933094;29;20686;-65
2023/03/01 19:13:30;;;;;;;19.88;13.77;;;;;;;7.25;100.00;98777.38;4933007;29;20217;-64
2023/03/01 19:16:05;;;;;;;18.02;13.90;;;;;;;6.86;100.00;98726.16;4936823;29;20189;-65
2023/03/01 19:18:30;;;;;;;22.83;14.77;;;;;;;6.98;100.00;98771.84;4951940;29;20193;-65
2023/03/01 19:21:03;;;;;;;24.15;15.02;;;;;;;6.93;100.00;98770.44;4951976;29;20248;-65
2023/03/01 19:23:29;;;;;;;19.27;13.07;;;;;;;7.01;100.00;98774.28;4952334;29;20196;-64
2023/03/01 19:26:03;;;;;;;16.88;12.55;;;;;;;7.09;100.00;98787.59;4951829;28;20216;-65
2023/03/01 19:28:29;;;;;;;17.40;12.82;;;;;;;7.00;100.00;98769.22;4952463;29;20687;-65
2023/03/01 19:31:03;;;;;;;17.55;13.23;;;;;;;6.62;100.00;98732.47;4933556;29;20217;-65
2023/03/01 19:33:30;;;;;;;17.48;13.93;;;;;;;6.37;100.00;98734.53;4932768;29;20185;-64
2023/03/01 19:35:56;;;;;;;20.90;14.20;;;;;;;6.34;100.00;98734.69;4951913;28;20688;-64
2023/03/01 19:38:22;;;;;;;18.70;13.73;;;;;;;6.54;100.00;98790.28;4951920;29;20272;-64
2023/03/01 19:40:48;;;;;;;16.92;12.02;;;;;;;6.46;100.00;98789.81;4952065;28;20231;-64
2023/03/01 19:43:13;;;;;;;18.15;12.27;;;;;;;6.42;100.00;98783.16;4954929;29;20208;-65
2023/03/01 19:45:39;;;;;;;16.42;12.55;;;;;;;6.12;100.00;98740.88;4955765;29;20248;-65